Easthampton, MA (01027)

3:13 AM EDT on May 24, 2015 (GMT -0400)
KMANORTH26 | | Change Station
CLOSE
Current Station
Personal Weather Station
Location: Northampton, MA
Elevation: 360 ft
Nearby Weather Stations
Active Advisory: Special Statement

Elev 360 ft 42.29 °N, 72.71 °W | Updated 3 minutes ago

Clear
Clear
38.0 °F
Feels Like 34 °F
N
5.0
Wind Variable Wind from SSE
Gusts 6.0 mph

Today
High -- | Low -- °F
--% Chance of Precip.
Yesterday
High -- | Low -- °F
Precip. -- in
5:21 AM 8:13 PM
Waxing Crescent, 36% visible
Pressure 30.31 in
Visibility 10.0 miles
Clouds Clear
Windchill 34 °F
Dew Point 34 °F
Humidity 86%
Rainfall -999.00 in
Snow Depth Not available.
UV 0 out of 12
Pollen 9.00 out of 12
Air Quality Not available.
Flu Activity Local Activity
METAR KBAF 240553Z AUTO 00000KT 10SM CLR 06/02 A3030 RMK AO2 SLP263 T00560022 10167 20044 54000

More Conditions Fewer Conditions

Pressure 30.31 in
Visibility 10.0 miles
Clouds Clear
Windchill 34 °F
Dew Point 34 °F
Humidity 86%
Rainfall -999.00 in
Snow Depth Not available.
UV 0 out of 12
Pollen 9.00 out of 12
Air Quality Not available.
Flu Activity Local Activity
METAR KBAF 240553Z AUTO 00000KT 10SM CLR 06/02 A3030 RMK AO2 SLP263 T00560022 10167 20044 54000

More Conditions Fewer Conditions

10-Day Weather Forecast

Almanac

Astronomy

May. 24, 2015 Rise Set
Actual Time
Civil Twilight
Nautical Twilight
Astronomical Twilight
Moon
Length of Visible Light
Length of Day
Tomorrow will be .
, % of the Moon is Illuminated

Today's Extremes

State Highs State Lows

Community

WunderPhotos

Upload Photos

1,823,693 photos uploaded!

WunderBlogs® & News

Nearby

Air Quality

  Air Quality AQ Index Pollutant
Not available.

Snow Depth

Station Depth Elevation

Earthquake Activity

City Distance Mag. Time & Date
Minimum magnitude displayed is 2.5.

Coastal Water Temperatures

Place Temperature

Stations

Nearby Weather Stations

Station Location Temp. Windchill Dew Point Humidity Wind Precip. Elev Updated Type
                   
Special Statement
Statement as of 3:56 PM EDT on May 23, 2015

... Elevated fire weather risk for Sunday...

Dry air remains across the region with minimum relative
humidities of 20 to 30 percent expected for late Sunday morning
into Sunday afternoon. Southwest winds will become gusty... mainly
across central and eastern areas... upwards to 20 to 25 mph.
Also... there continues to be a lack of significant rainfall across
the region... which dates back a few weeks.

With these factors in place... local fire officials have advised
that there is an elevated fire spread potential for Sunday across
much of southern New England away from the South Coast.

Relative humidities will be higher along the south coasts of
Massachusetts and Rhode Island as well as Cape Cod and the islands
with the southwest winds bringing higher dewpoints... so the fire
weather risk is lower there.


Evt